Invader — WDC6283 — position and weather

sailwx.info

Track history (hours):
 
Tides and Currents Weather Stations Pressure Air Temp Water Temp Dewpoint Dewpoint Depression Visibility Wind Speed Wind Dir Waves Ship Positions

Invader

Owner: Nautical Investiment Corporation, Amelia, LA. More information available from US FCC via Universal Licensing System and Coast Guard Vessel Documentation Center.

Last reported at 2014-Nov-24 00:33 UTC. Time now 2014-Nov-24 01:28 UTC.
Position N 29°41' W 091°12'.

Length 40 m; draft 3 m.

Type: Passenger vessel. MMSI: 367053990.

Date/timePositionNaut miles runAvg speedWind from/ knotsBaromVisibWave heightAir tempDewpointWater temp
2014-Nov-24 00:33N 29°41' W 091°12'0 0.0
2014-Nov-23 23:33N 29°41' W 091°12'0 0.0
2014-Nov-23 22:33N 29°41' W 091°12'0 0.0
2014-Nov-23 21:33N 29°41' W 091°12'0 0.0
2014-Nov-23 20:33N 29°41' W 091°12'0 0.0
2014-Nov-23 19:33N 29°41' W 091°12'3 3.5
2014-Nov-23 18:34N 29°39' W 091°14'1312.7
2014-Nov-23 17:32N 29°26' W 091°19'1 0.0
2014-Nov-23 02:29N 29°27' W 091°19'1213.4
2014-Nov-23 01:34N 29°39' W 091°14'4 3.5
2014-Nov-23 00:33N 29°41' W 091°12'0 0.0
2014-Nov-22 23:33N 29°41' W 091°12'0 0.0
2014-Nov-22 22:33N 29°41' W 091°12'0 0.0
2014-Nov-22 21:33N 29°41' W 091°12'0 0.0
2014-Nov-22 20:33N 29°41' W 091°12'0 0.0
2014-Nov-22 19:33N 29°41' W 091°12'0 0.0
2014-Nov-22 18:33N 29°41' W 091°12'0 0.0
2014-Nov-22 17:33N 29°41' W 091°12'0 0.0
2014-Nov-22 16:33N 29°41' W 091°12'0 0.0
2014-Nov-22 15:33N 29°41' W 091°12'0 0.0
2014-Nov-22 14:33N 29°41' W 091°12'0 0.0
2014-Nov-22 13:33N 29°41' W 091°12'0 0.0
2014-Nov-22 12:33N 29°41' W 091°12'0 0.0
2014-Nov-22 11:33N 29°41' W 091°12'0 0.0
2014-Nov-22 10:33N 29°41' W 091°12'0 0.0
2014-Nov-22 09:33N 29°41' W 091°12'0 0.0
2014-Nov-22 08:33N 29°41' W 091°12'0 0.0
2014-Nov-22 07:33N 29°41' W 091°12'0 0.0
2014-Nov-22 06:33N 29°41' W 091°12'0 0.0
2014-Nov-22 05:33N 29°41' W 091°12'1 0.6
2014-Nov-22 04:33N 29°41' W 091°13'2 1.9
2014-Nov-22 03:33N 29°40' W 091°14'2 2.5
2014-Nov-22 02:33N 29°41' W 091°12'0 0.0
2014-Nov-22 01:33N 29°41' W 091°12'0 0.0
2014-Nov-22 00:33N 29°41' W 091°12'0 0.1
2014-Nov-21 23:33N 29°41' W 091°12'1211.7
2014-Nov-21 22:34N 29°30' W 091°16'7 0.5
2014-Nov-21 08:33N 29°25' W 091°21'1212.4
2014-Nov-21 07:34N 29°36' W 091°14'6 6.0
2014-Nov-21 06:33N 29°41' W 091°12'0 0.0
2014-Nov-21 05:33N 29°41' W 091°12'0 0.0
2014-Nov-21 04:33N 29°41' W 091°12'0 0.0
2014-Nov-21 03:33N 29°41' W 091°12'0 0.0
2014-Nov-21 02:33N 29°41' W 091°12'0 0.0
2014-Nov-21 01:33N 29°41' W 091°12'0 0.0
2014-Nov-21 00:33N 29°41' W 091°12'0 0.0
2014-Nov-20 23:33N 29°41' W 091°12'0 0.0
2014-Nov-20 22:33N 29°41' W 091°12'0 0.0
2014-Nov-20 21:33N 29°41' W 091°12'0 0.0
2014-Nov-20 20:33N 29°41' W 091°12'0 0.0
2014-Nov-20 19:33N 29°41' W 091°12'0 0.0
2014-Nov-20 18:33N 29°41' W 091°12'2 2.4
2014-Nov-20 17:33N 29°40' W 091°14'1212.0
2014-Nov-20 16:33N 29°28' W 091°17'12 2.0
2014-Nov-20 10:20N 29°19' W 091°26'1316.9
2014-Nov-20 09:33N 29°29' W 091°16'1312.5
2014-Nov-20 08:33N 29°41' W 091°13'1 1.0
2014-Nov-20 07:33N 29°41' W 091°12'0 0.0
2014-Nov-20 06:33N 29°41' W 091°12'0 0.3
2014-Nov-20 05:33N 29°41' W 091°12'1211.8
2014-Nov-20 04:34N 29°30' W 091°16'8 0.6
2014-Nov-19 15:19N 29°23' W 091°22'1013.4
2014-Nov-19 14:33N 29°32' W 091°16'9 9.2
2014-Nov-19 13:33N 29°41' W 091°13'1 1.2
2014-Nov-19 12:33N 29°41' W 091°12'0 0.0
2014-Nov-19 11:33N 29°41' W 091°12'0 0.0
2014-Nov-19 10:33N 29°41' W 091°12'0 0.0
2014-Nov-19 09:33N 29°41' W 091°12'0 0.0
2014-Nov-19 08:33N 29°41' W 091°12'0 0.0
2014-Nov-19 07:33N 29°41' W 091°12'0 0.0
2014-Nov-19 06:33N 29°41' W 091°12'0 0.0
2014-Nov-19 05:33N 29°41' W 091°12'0 0.0
2014-Nov-19 04:33N 29°41' W 091°12'0 0.0
2014-Nov-19 03:33N 29°41' W 091°12'0 0.0
2014-Nov-19 02:33N 29°41' W 091°12'0 0.0
2014-Nov-19 01:33N 29°41' W 091°12'0 0.0
2014-Nov-19 00:33N 29°41' W 091°12'0 0.0
2014-Nov-18 23:33N 29°41' W 091°12'0 0.0
2014-Nov-18 22:33N 29°41' W 091°12'0 0.0
2014-Nov-18 21:33N 29°41' W 091°12'0 0.0
2014-Nov-18 20:33N 29°41' W 091°12'0 0.0
2014-Nov-18 19:33N 29°41' W 091°12'0 0.0
2014-Nov-18 18:33N 29°41' W 091°12'0 0.0
2014-Nov-18 17:33N 29°41' W 091°12'0 0.0
2014-Nov-18 16:33N 29°41' W 091°12'0 0.0
2014-Nov-18 15:33N 29°41' W 091°12'0 0.0
2014-Nov-18 14:33N 29°41' W 091°12'0 0.0
2014-Nov-18 13:33N 29°41' W 091°12'0 0.0
2014-Nov-18 12:33N 29°41' W 091°12'0 0.0
2014-Nov-18 11:33N 29°41' W 091°12'0 0.0
2014-Nov-18 10:33N 29°41' W 091°12'0 0.0
2014-Nov-18 09:33N 29°41' W 091°12'0 0.0
2014-Nov-18 08:33N 29°41' W 091°12'0 0.0
2014-Nov-18 07:33N 29°41' W 091°12'0 0.0
2014-Nov-18 06:33N 29°41' W 091°12'0 0.0
2014-Nov-18 05:33N 29°41' W 091°12'0 0.0
2014-Nov-18 04:33N 29°41' W 091°12'0 0.0
2014-Nov-18 03:33N 29°41' W 091°12'0 0.0
2014-Nov-18 02:33N 29°41' W 091°12'0 0.0
2014-Nov-18 01:33N 29°41' W 091°12'0 0.0
2014-Nov-18 00:33N 29°41' W 091°12'0 0.0
2014-Nov-17 23:33N 29°41' W 091°12'0 0.0
2014-Nov-17 22:33N 29°41' W 091°12'0 0.0
2014-Nov-17 21:33N 29°41' W 091°12'0 0.0
2014-Nov-17 20:33N 29°41' W 091°12'0 0.0
2014-Nov-17 19:33N 29°41' W 091°12'0 0.0
2014-Nov-17 18:33N 29°41' W 091°12'0 0.0
2014-Nov-17 17:33N 29°41' W 091°12'0 0.0
2014-Nov-17 16:33N 29°41' W 091°12'0 0.0
2014-Nov-17 15:33N 29°41' W 091°12'0 0.0
2014-Nov-17 14:33N 29°41' W 091°12'0 0.0
2014-Nov-17 13:33N 29°41' W 091°12'0 0.0
2014-Nov-17 12:33N 29°41' W 091°12'0 0.0
2014-Nov-17 11:33N 29°41' W 091°12'0 0.0
2014-Nov-17 10:33N 29°41' W 091°12'0 0.0
2014-Nov-17 09:33N 29°41' W 091°12'0 0.0
2014-Nov-17 08:33N 29°41' W 091°12'0 0.0
2014-Nov-17 07:33N 29°41' W 091°12'0 0.0
2014-Nov-17 06:33N 29°41' W 091°12'0 0.0
2014-Nov-17 05:33N 29°41' W 091°12'0 0.0
2014-Nov-17 04:33N 29°41' W 091°12'0 0.0
2014-Nov-17 03:33N 29°41' W 091°12'0 0.0
2014-Nov-17 02:33N 29°41' W 091°12'0 0.0
2014-Nov-17 01:33N 29°41' W 091°12'0 0.0
2014-Nov-17 00:33N 29°41' W 091°12'0 0.0
2014-Nov-16 23:33N 29°41' W 091°12'0 0.0
2014-Nov-16 22:33N 29°41' W 091°12'1 1.1
2014-Nov-16 21:33N 29°41' W 091°13'1 1.4
2014-Nov-16 20:33N 29°40' W 091°14'2 2.5
2014-Nov-16 19:33N 29°41' W 091°12'6 5.9
2014-Nov-16 18:33N 29°36' W 091°14'1414.2
2014-Nov-16 17:33N 29°23' W 091°22'2 0.2
2014-Nov-16 09:12N 29°22' W 091°23'1016.0
2014-Nov-16 08:33N 29°30' W 091°16'1211.9
2014-Nov-16 07:33N 29°41' W 091°12'0 0.4
2014-Nov-16 06:34N 29°41' W 091°12'0 0.0
2014-Nov-16 05:33N 29°41' W 091°12'0 0.0
2014-Nov-16 04:33N 29°41' W 091°12'0 0.0
2014-Nov-16 03:34N 29°41' W 091°12'0 0.0
2014-Nov-16 02:33N 29°41' W 091°12'0 0.0
2014-Nov-16 01:34N 29°41' W 091°12'0 0.0
2014-Nov-16 00:34N 29°41' W 091°12'0 0.0
2014-Nov-15 23:34N 29°41' W 091°12'1111.1
2014-Nov-15 22:34N 29°31' W 091°16'12 0.3
2014-Nov-14 02:17N 29°21' W 091°24'1317.5
2014-Nov-14 01:33N 29°31' W 091°16'1110.7
2014-Nov-14 00:33N 29°41' W 091°12'  
Track history (hours):
 
Tides and Currents Weather Stations Pressure Air Temp Water Temp Dewpoint Dewpoint Depression Visibility Wind Speed Wind Dir Waves Ship Positions

Invader

Owner: Nautical Investiment Corporation, Amelia, LA. More information available from US FCC via Universal Licensing System and Coast Guard Vessel Documentation Center.

Last reported at 2014-Nov-24 00:33 UTC. Time now 2014-Nov-24 01:28 UTC.
Position N 29°41' W 091°12'.

Length 40 m; draft 3 m.

Type: Passenger vessel. MMSI: 367053990.

Date/timePositionNaut miles runAvg speedWind from/ knotsBaromVisibWave heightAir tempDewpointWater temp
2014-Nov-24 00:33N 29°41' W 091°12'0 0.0
2014-Nov-23 23:33N 29°41' W 091°12'0 0.0
2014-Nov-23 22:33N 29°41' W 091°12'0 0.0
2014-Nov-23 21:33N 29°41' W 091°12'0 0.0
2014-Nov-23 20:33N 29°41' W 091°12'0 0.0
2014-Nov-23 19:33N 29°41' W 091°12'3 3.5
2014-Nov-23 18:34N 29°39' W 091°14'1312.7
2014-Nov-23 17:32N 29°26' W 091°19'1 0.0
2014-Nov-23 02:29N 29°27' W 091°19'1213.4
2014-Nov-23 01:34N 29°39' W 091°14'4 3.5
2014-Nov-23 00:33N 29°41' W 091°12'0 0.0
2014-Nov-22 23:33N 29°41' W 091°12'0 0.0
2014-Nov-22 22:33N 29°41' W 091°12'0 0.0
2014-Nov-22 21:33N 29°41' W 091°12'0 0.0
2014-Nov-22 20:33N 29°41' W 091°12'0 0.0
2014-Nov-22 19:33N 29°41' W 091°12'0 0.0
2014-Nov-22 18:33N 29°41' W 091°12'0 0.0
2014-Nov-22 17:33N 29°41' W 091°12'0 0.0
2014-Nov-22 16:33N 29°41' W 091°12'0 0.0
2014-Nov-22 15:33N 29°41' W 091°12'0 0.0
2014-Nov-22 14:33N 29°41' W 091°12'0 0.0
2014-Nov-22 13:33N 29°41' W 091°12'0 0.0
2014-Nov-22 12:33N 29°41' W 091°12'0 0.0
2014-Nov-22 11:33N 29°41' W 091°12'0 0.0
2014-Nov-22 10:33N 29°41' W 091°12'0 0.0
2014-Nov-22 09:33N 29°41' W 091°12'0 0.0
2014-Nov-22 08:33N 29°41' W 091°12'0 0.0
2014-Nov-22 07:33N 29°41' W 091°12'0 0.0
2014-Nov-22 06:33N 29°41' W 091°12'0 0.0
2014-Nov-22 05:33N 29°41' W 091°12'1 0.6
2014-Nov-22 04:33N 29°41' W 091°13'2 1.9
2014-Nov-22 03:33N 29°40' W 091°14'2 2.5
2014-Nov-22 02:33N 29°41' W 091°12'0 0.0
2014-Nov-22 01:33N 29°41' W 091°12'0 0.0
2014-Nov-22 00:33N 29°41' W 091°12'0 0.1
2014-Nov-21 23:33N 29°41' W 091°12'1211.7
2014-Nov-21 22:34N 29°30' W 091°16'7 0.5
2014-Nov-21 08:33N 29°25' W 091°21'1212.4
2014-Nov-21 07:34N 29°36' W 091°14'6 6.0
2014-Nov-21 06:33N 29°41' W 091°12'0 0.0
2014-Nov-21 05:33N 29°41' W 091°12'0 0.0
2014-Nov-21 04:33N 29°41' W 091°12'0 0.0
2014-Nov-21 03:33N 29°41' W 091°12'0 0.0
2014-Nov-21 02:33N 29°41' W 091°12'0 0.0
2014-Nov-21 01:33N 29°41' W 091°12'0 0.0
2014-Nov-21 00:33N 29°41' W 091°12'0 0.0
2014-Nov-20 23:33N 29°41' W 091°12'0 0.0
2014-Nov-20 22:33N 29°41' W 091°12'0 0.0
2014-Nov-20 21:33N 29°41' W 091°12'0 0.0
2014-Nov-20 20:33N 29°41' W 091°12'0 0.0
2014-Nov-20 19:33N 29°41' W 091°12'0 0.0
2014-Nov-20 18:33N 29°41' W 091°12'2 2.4
2014-Nov-20 17:33N 29°40' W 091°14'1212.0
2014-Nov-20 16:33N 29°28' W 091°17'12 2.0
2014-Nov-20 10:20N 29°19' W 091°26'1316.9
2014-Nov-20 09:33N 29°29' W 091°16'1312.5
2014-Nov-20 08:33N 29°41' W 091°13'1 1.0
2014-Nov-20 07:33N 29°41' W 091°12'0 0.0
2014-Nov-20 06:33N 29°41' W 091°12'0 0.3
2014-Nov-20 05:33N 29°41' W 091°12'1211.8
2014-Nov-20 04:34N 29°30' W 091°16'8 0.6
2014-Nov-19 15:19N 29°23' W 091°22'1013.4
2014-Nov-19 14:33N 29°32' W 091°16'9 9.2
2014-Nov-19 13:33N 29°41' W 091°13'1 1.2
2014-Nov-19 12:33N 29°41' W 091°12'0 0.0
2014-Nov-19 11:33N 29°41' W 091°12'0 0.0
2014-Nov-19 10:33N 29°41' W 091°12'0 0.0
2014-Nov-19 09:33N 29°41' W 091°12'0 0.0
2014-Nov-19 08:33N 29°41' W 091°12'0 0.0
2014-Nov-19 07:33N 29°41' W 091°12'0 0.0
2014-Nov-19 06:33N 29°41' W 091°12'0 0.0
2014-Nov-19 05:33N 29°41' W 091°12'0 0.0
2014-Nov-19 04:33N 29°41' W 091°12'0 0.0
2014-Nov-19 03:33N 29°41' W 091°12'0 0.0
2014-Nov-19 02:33N 29°41' W 091°12'0 0.0
2014-Nov-19 01:33N 29°41' W 091°12'0 0.0
2014-Nov-19 00:33N 29°41' W 091°12'0 0.0
2014-Nov-18 23:33N 29°41' W 091°12'0 0.0
2014-Nov-18 22:33N 29°41' W 091°12'0 0.0
2014-Nov-18 21:33N 29°41' W 091°12'0 0.0
2014-Nov-18 20:33N 29°41' W 091°12'0 0.0
2014-Nov-18 19:33N 29°41' W 091°12'0 0.0
2014-Nov-18 18:33N 29°41' W 091°12'0 0.0
2014-Nov-18 17:33N 29°41' W 091°12'0 0.0
2014-Nov-18 16:33N 29°41' W 091°12'0 0.0
2014-Nov-18 15:33N 29°41' W 091°12'0 0.0
2014-Nov-18 14:33N 29°41' W 091°12'0 0.0
2014-Nov-18 13:33N 29°41' W 091°12'0 0.0
2014-Nov-18 12:33N 29°41' W 091°12'0 0.0
2014-Nov-18 11:33N 29°41' W 091°12'0 0.0
2014-Nov-18 10:33N 29°41' W 091°12'0 0.0
2014-Nov-18 09:33N 29°41' W 091°12'0 0.0
2014-Nov-18 08:33N 29°41' W 091°12'0 0.0
2014-Nov-18 07:33N 29°41' W 091°12'0 0.0
2014-Nov-18 06:33N 29°41' W 091°12'0 0.0
2014-Nov-18 05:33N 29°41' W 091°12'0 0.0
2014-Nov-18 04:33N 29°41' W 091°12'0 0.0
2014-Nov-18 03:33N 29°41' W 091°12'0 0.0
2014-Nov-18 02:33N 29°41' W 091°12'0 0.0
2014-Nov-18 01:33N 29°41' W 091°12'0 0.0
2014-Nov-18 00:33N 29°41' W 091°12'0 0.0
2014-Nov-17 23:33N 29°41' W 091°12'0 0.0
2014-Nov-17 22:33N 29°41' W 091°12'0 0.0
2014-Nov-17 21:33N 29°41' W 091°12'0 0.0
2014-Nov-17 20:33N 29°41' W 091°12'0 0.0
2014-Nov-17 19:33N 29°41' W 091°12'0 0.0
2014-Nov-17 18:33N 29°41' W 091°12'0 0.0
2014-Nov-17 17:33N 29°41' W 091°12'0 0.0
2014-Nov-17 16:33N 29°41' W 091°12'0 0.0
2014-Nov-17 15:33N 29°41' W 091°12'0 0.0
2014-Nov-17 14:33N 29°41' W 091°12'0 0.0
2014-Nov-17 13:33N 29°41' W 091°12'0 0.0
2014-Nov-17 12:33N 29°41' W 091°12'0 0.0
2014-Nov-17 11:33N 29°41' W 091°12'0 0.0
2014-Nov-17 10:33N 29°41' W 091°12'0 0.0
2014-Nov-17 09:33N 29°41' W 091°12'0 0.0
2014-Nov-17 08:33N 29°41' W 091°12'0 0.0
2014-Nov-17 07:33N 29°41' W 091°12'0 0.0
2014-Nov-17 06:33N 29°41' W 091°12'0 0.0
2014-Nov-17 05:33N 29°41' W 091°12'0 0.0
2014-Nov-17 04:33N 29°41' W 091°12'0 0.0
2014-Nov-17 03:33N 29°41' W 091°12'0 0.0
2014-Nov-17 02:33N 29°41' W 091°12'0 0.0
2014-Nov-17 01:33N 29°41' W 091°12'0 0.0
2014-Nov-17 00:33N 29°41' W 091°12'0 0.0
2014-Nov-16 23:33N 29°41' W 091°12'0 0.0
2014-Nov-16 22:33N 29°41' W 091°12'1 1.1
2014-Nov-16 21:33N 29°41' W 091°13'1 1.4
2014-Nov-16 20:33N 29°40' W 091°14'2 2.5
2014-Nov-16 19:33N 29°41' W 091°12'6 5.9
2014-Nov-16 18:33N 29°36' W 091°14'1414.2
2014-Nov-16 17:33N 29°23' W 091°22'2 0.2
2014-Nov-16 09:12N 29°22' W 091°23'1016.0
2014-Nov-16 08:33N 29°30' W 091°16'1211.9
2014-Nov-16 07:33N 29°41' W 091°12'0 0.4
2014-Nov-16 06:34N 29°41' W 091°12'0 0.0
2014-Nov-16 05:33N 29°41' W 091°12'0 0.0
2014-Nov-16 04:33N 29°41' W 091°12'0 0.0
2014-Nov-16 03:34N 29°41' W 091°12'0 0.0
2014-Nov-16 02:33N 29°41' W 091°12'0 0.0
2014-Nov-16 01:34N 29°41' W 091°12'0 0.0
2014-Nov-16 00:34N 29°41' W 091°12'0 0.0
2014-Nov-15 23:34N 29°41' W 091°12'1111.1
2014-Nov-15 22:34N 29°31' W 091°16'12 0.3
2014-Nov-14 02:17N 29°21' W 091°24'1317.5
2014-Nov-14 01:33N 29°31' W 091°16'1110.7
2014-Nov-14 00:33N 29°41' W 091°12'  

Dump ship's entire track history